Предлагаем Вашему вниманию английскую версию страницы: AUTOTAF.ME 34753 - aviation weather forecast Zavetnoe

AUTOTAF 34753 - авиапрогноз Заветное

Сегодня рассвет 03:56 UTC, восход солнца 04:31 UTC,
местный полдень 08:53 UTC, заход солнца 13:16 UTC,
наступление темноты 13:51 UTC.

Краткий прогноз 34753 на 9 часов

AUTOTAF.ME 34753 020800Z 0209/0218 10008MPS 9999 BKN012    
  BECMG 0210/0212 BKN019  
  BECMG 0213/0215 BKN012

Детальный прогноз 34753 на 24 часа

AUTOTAF.ME 34753 020800Z 0209/0309 10008MPS 9999 BKN012 TXM01/0212Z TNM04/0221Z  
  BECMG 0210/0212 BKN019  
  BECMG 0213/0215 BKN012     
  BECMG 0301/0303 OVC008

Подробный табличный прогноз

Время (UTC) miniAUTOTAF на 3 ч WX FZLVL
M AGL
ICE TURB Т
(°С)
Тd
(°С)
f(%) QNH
(гПа)
WIND/T
06 09008MPS 9999 BKN012 SFC MOD FL10/FL190 -4 -8 72 1032 ...
09 10008MPS 9999 BKN012 SFC MOD FL20/FL190 -2 -7 69 1033 ...
12 10008MPS 9999 BKN019 SFC MOD FL170/FL190 MOD SFC/FL20 -1 -7 68 1032 ...
15 09008MPS 9999 BKN012 SFC MOD FL20/FL190 MOD SFC/FL20 -3 -7 70 1033 ...
18 10008MPS 9999 BKN012 SFC MOD FL10/FL190 -3 -7 77 1033 ...
21 10007G12MPS 9999 BKN010 SFC MOD FL190/FL200 -4 -6 85 1034 ...
03.12.2020
00 10007MPS 9999 BKN009 SFC MOD FL70/FL80 -4 -6 85 1034 ...
03 10007MPS 9999 OVC008 SFC MOD FL20/FL190 -4 -6 87 1034 ...
06 11007MPS 9999 OVC008 SFC MOD FL70/FL80 -4 -6 82 1035 ...
09 11007MPS 9999 BKN010 SFC MOD FL20/FL70 MOD SFC/FL20 -1 -7 67 1034 ...
12 11007MPS 9999 SCT010 SFC MOD FL50/FL190 MOD SFC/FL20 -1 -7 63 1034 ...
15 10007G12MPS 9999 BKN019 SFC MOD FL50/FL170 -3 -8 65 1034 ...
18 11007G13MPS 9999 SCT012 SFC MOD FL70/FL150 -3 -8 69 1033 ...
21 11007G12MPS 9999 BKN012 SFC MOD FL10/FL150 -4 -7 78 1033 ...
04.12.2020
00 10007G12MPS 9999 BKN012 SFC MOD FL10/FL120 -4 -7 82 1033 ...
03 10008MPS 9999 BKN012 SFC MOD FL10/FL120 -5 -7 82 1033 ...


Широта 47.1°, долгота 43.9°, высота 81 м абс.
Средняя высота рельефа местности 111 м абс.
Прогнозы обновляются четыре раза в сутки: в 02, 08, 14, 20 ч всемирного времени.


Выбрать прогноз по другой модели Заветное
Онлайн-сводка гроз по Заветное (для РФ и ближнего зарубежья)
Карта фактических гроз в окрестностях Заветное
Динамические прогностические карты (ventusky.com)
Прогностическая карта высоты нижней границы облаков по Заветное (windy.com)
Выбрать другой город

Прогноз предназначен для личного научно-познавательного использования частными лицами
и не предназначен для принятия важных решений и выполнения реальных полётов воздушных судов

При копировании или ином использовании любых материалов данного сайта ссылка на © meteocenter.asia обязательна.

0.57/0.7